createdAt,value
2024-05-09T00:01:38.384Z,98295.42
2024-05-09T00:04:40.897Z,98287.72
2024-05-09T00:07:43.416Z,98289.20
2024-05-09T00:10:46.067Z,98290.24
2024-05-09T00:13:48.656Z,98288.39
2024-05-09T00:16:51.257Z,98289.34
2024-05-09T00:19:53.980Z,98293.25
2024-05-09T00:22:56.581Z,98289.25
2024-05-09T00:25:59.104Z,98292.16
2024-05-09T00:29:01.697Z,98293.60
2024-05-09T00:32:04.732Z,98293.23
2024-05-09T00:35:07.491Z,98297.64
2024-05-09T00:38:10.776Z,98297.61
2024-05-09T00:41:16.346Z,98297.20
2024-05-09T00:44:19.674Z,98302.08
2024-05-09T00:47:23.984Z,98303.91
2024-05-09T00:50:35.452Z,98305.08
2024-05-09T00:53:39.910Z,98301.84
2024-05-09T00:56:42.704Z,98303.09
2024-05-09T00:59:45.315Z,98306.06
2024-05-09T01:02:47.964Z,98308.39
2024-05-09T01:05:50.615Z,98307.94
2024-05-09T01:08:53.455Z,98304.21
2024-05-09T01:11:56.220Z,98306.10
2024-05-09T01:14:58.815Z,98305.65
2024-05-09T01:18:06.874Z,98304.77
2024-05-09T01:21:09.898Z,98300.44
2024-05-09T01:24:12.461Z,98296.02
2024-05-09T01:27:14.974Z,98296.82
2024-05-09T01:30:21.360Z,98301.81
2024-05-09T01:33:30.989Z,98302.58
2024-05-09T01:36:33.777Z,98303.79
2024-05-09T01:39:36.282Z,98302.83
2024-05-09T01:42:38.764Z,98301.80
2024-05-09T01:45:41.775Z,98300.77
2024-05-09T01:48:44.885Z,98301.14
2024-05-09T01:51:47.441Z,98303.23
2024-05-09T01:54:49.937Z,98302.87
2024-05-09T01:57:52.488Z,98295.11
2024-05-09T02:00:55.047Z,98288.38
2024-05-09T02:03:57.738Z,98288.70
2024-05-09T02:07:00.363Z,98286.84
2024-05-09T02:10:08.366Z,98285.73
2024-05-09T02:13:14.035Z,98286.66
2024-05-09T02:16:16.549Z,98280.51
2024-05-09T02:19:19.164Z,98279.10
2024-05-09T02:22:21.667Z,98274.62
2024-05-09T02:25:24.799Z,98275.61
2024-05-09T02:28:27.308Z,98278.95
2024-05-09T02:31:29.814Z,98279.44
2024-05-09T02:34:32.882Z,98287.88
2024-05-09T02:37:35.389Z,98288.02
2024-05-09T02:40:39.493Z,98293.33
2024-05-09T02:43:42.838Z,98292.58
2024-05-09T02:46:45.381Z,98294.58
2024-05-09T02:49:47.947Z,98292.19
2024-05-09T02:52:50.583Z,98299.09
2024-05-09T02:55:53.194Z,98301.56
2024-05-09T02:58:56.674Z,98306.17
2024-05-09T03:02:00.770Z,98304.04
2024-05-09T03:05:09.911Z,98301.02
2024-05-09T03:08:12.730Z,98300.40
2024-05-09T03:11:25.277Z,98300.34
2024-05-09T03:14:28.370Z,98307.41
2024-05-09T03:17:31.248Z,98309.52
2024-05-09T03:20:35.849Z,98311.84
2024-05-09T03:23:42.809Z,98312.64
2024-05-09T03:26:45.572Z,98316.15
2024-05-09T03:29:48.041Z,98318.60
2024-05-09T03:32:50.701Z,98314.90
2024-05-09T03:35:53.212Z,98311.53
2024-05-09T03:38:55.732Z,98308.66
2024-05-09T03:41:58.235Z,98310.91
2024-05-09T03:45:00.742Z,98308.92
2024-05-09T03:48:03.526Z,98316.71
2024-05-09T03:51:06.861Z,98313.67
2024-05-09T03:54:09.641Z,98310.96
2024-05-09T03:57:12.144Z,98310.68
2024-05-09T04:00:18.354Z,98313.02
2024-05-09T04:03:28.983Z,98314.00
2024-05-09T04:06:31.602Z,98327.91
2024-05-09T04:09:34.066Z,98333.78
2024-05-09T04:12:37.280Z,98333.88
2024-05-09T04:15:39.860Z,98326.53
2024-05-09T04:18:42.434Z,98327.36
2024-05-09T04:21:44.923Z,98325.91
2024-05-09T04:24:48.119Z,98328.42
2024-05-09T04:27:55.377Z,98330.98
2024-05-09T04:30:57.890Z,98333.23
2024-05-09T04:34:00.508Z,98336.12
2024-05-09T04:37:03.326Z,98340.38
2024-05-09T04:40:08.974Z,98344.34
2024-05-09T04:43:19.309Z,98339.23
2024-05-09T04:46:21.852Z,98345.08
2024-05-09T04:49:24.592Z,98345.09
2024-05-09T04:52:27.104Z,98348.47
2024-05-09T04:55:29.602Z,98352.45
2024-05-09T04:58:32.106Z,98361.60
2024-05-09T05:01:34.615Z,98362.34
2024-05-09T05:04:37.118Z,98366.82
2024-05-09T05:07:39.637Z,98372.77
2024-05-09T05:10:42.677Z,98371.84
2024-05-09T05:13:45.240Z,98368.76
2024-05-09T05:16:47.853Z,98368.85
2024-05-09T05:19:50.489Z,98377.40
2024-05-09T05:22:53.053Z,98379.84
2024-05-09T05:25:55.903Z,98384.01
2024-05-09T05:28:58.553Z,98381.58
2024-05-09T05:32:01.304Z,98382.03
2024-05-09T05:35:04.771Z,98382.92
2024-05-09T05:38:07.916Z,98382.38
2024-05-09T05:41:10.520Z,98383.27
2024-05-09T05:44:14.183Z,98387.22
2024-05-09T05:47:16.870Z,98389.13
2024-05-09T05:50:27.392Z,98386.80
2024-05-09T05:53:35.793Z,98394.08
2024-05-09T05:56:38.485Z,98392.21
2024-05-09T05:59:41.095Z,98391.77
2024-05-09T06:02:43.812Z,98390.14
2024-05-09T06:05:46.604Z,98392.08
2024-05-09T06:08:49.359Z,98387.84
2024-05-09T06:11:52.066Z,98389.06
2024-05-09T06:14:54.617Z,98383.82
2024-05-09T06:17:57.266Z,98387.56
2024-05-09T06:20:59.930Z,98389.35
2024-05-09T06:24:06.229Z,98389.02
2024-05-09T06:27:09.399Z,98388.44
2024-05-09T06:30:24.851Z,98391.48
2024-05-09T06:33:32.190Z,98391.16
2024-05-09T06:36:34.941Z,98393.67
2024-05-09T06:39:37.340Z,98389.48
2024-05-09T06:42:39.860Z,98390.55
2024-05-09T06:45:42.498Z,98394.36
2024-05-09T06:48:45.479Z,98393.35
2024-05-09T06:51:48.287Z,98394.36
2024-05-09T06:54:50.761Z,98400.67
2024-05-09T06:57:53.278Z,98401.29
2024-05-09T07:00:55.733Z,98397.15
2024-05-09T07:03:58.308Z,98396.96
2024-05-09T07:07:00.833Z,98399.26
2024-05-09T07:10:04.089Z,98391.39
2024-05-09T07:13:13.216Z,98388.80
2024-05-09T07:16:16.055Z,98390.41
2024-05-09T07:19:19.073Z,98387.34
2024-05-09T07:22:22.833Z,98392.10
2024-05-09T07:25:25.304Z,98391.23
2024-05-09T07:28:27.713Z,98387.58
2024-05-09T07:31:31.224Z,98382.72
2024-05-09T07:34:34.089Z,98383.13
2024-05-09T07:37:36.684Z,98384.02
2024-05-09T07:40:40.664Z,98380.85
2024-05-09T07:43:44.243Z,98379.20
2024-05-09T07:47:48.536Z,98377.94
2024-05-09T07:53:37.761Z,98379.34
2024-05-09T07:56:37.360Z,98380.04
2024-05-09T07:59:39.911Z,98382.65
2024-05-09T08:02:42.436Z,98385.55
2024-05-09T08:05:44.955Z,98384.48
2024-05-09T08:08:47.681Z,98384.98
2024-05-09T08:11:52.394Z,98388.07
2024-05-09T08:14:56.127Z,98383.84
2024-05-09T08:18:00.001Z,98386.31
2024-05-09T08:21:02.654Z,98384.12
2024-05-09T08:24:05.430Z,98386.73
2024-05-09T08:27:08.065Z,98384.36
2024-05-09T08:30:18.802Z,98380.84
2024-05-09T08:33:27.517Z,98382.08
2024-05-09T08:36:30.122Z,98383.36
2024-05-09T08:39:32.644Z,98383.55
2024-05-09T08:42:36.513Z,98382.53
2024-05-09T08:45:41.866Z,98382.31
2024-05-09T08:48:48.024Z,98375.49
2024-05-09T08:51:50.865Z,98381.77
2024-05-09T08:54:54.942Z,98384.54
2024-05-09T08:57:59.110Z,98384.48
2024-05-09T09:01:03.743Z,98382.91
2024-05-09T09:04:09.577Z,98374.23
2024-05-09T09:07:12.698Z,98377.86
2024-05-09T09:10:28.901Z,98383.33
2024-05-09T09:13:34.207Z,98375.23
2024-05-09T09:16:37.314Z,98379.27
2024-05-09T09:19:40.266Z,98381.91
2024-05-09T09:22:42.742Z,98379.30
2024-05-09T09:25:45.353Z,98382.23
2024-05-09T09:28:47.906Z,98379.61
2024-05-09T09:31:59.942Z,98391.85
2024-05-09T09:35:02.608Z,98385.58
2024-05-09T09:38:07.307Z,98381.98
2024-05-09T09:41:12.961Z,98373.79
2024-05-09T09:44:16.906Z,98379.02
2024-05-09T09:47:20.363Z,98376.80
2024-05-09T09:50:31.724Z,98374.42
2024-05-09T09:53:38.236Z,98385.01
2024-05-09T09:56:41.531Z,98374.14
2024-05-09T09:59:46.669Z,98373.20
2024-05-09T10:02:49.187Z,98376.50
2024-05-09T10:05:52.369Z,98382.79
2024-05-09T10:08:55.386Z,98383.09
2024-05-09T10:12:09.605Z,98372.91
2024-05-09T10:15:12.409Z,98382.41
2024-05-09T10:18:15.373Z,98370.21
2024-05-09T10:21:19.210Z,98373.64
2024-05-09T10:24:21.647Z,98374.70
2024-05-09T10:27:28.208Z,98377.06
2024-05-09T10:30:35.855Z,98381.80
2024-05-09T10:33:50.843Z,98384.65
2024-05-09T10:36:54.658Z,98383.92
2024-05-09T10:39:58.576Z,98382.97
2024-05-09T10:43:05.814Z,98378.89
2024-05-09T10:46:11.030Z,98378.58
2024-05-09T10:49:14.735Z,98372.31
2024-05-09T10:52:20.998Z,98372.98
2024-05-09T10:55:23.569Z,98371.29
2024-05-09T10:58:27.040Z,98372.42
2024-05-09T11:01:29.615Z,98368.67
2024-05-09T11:04:36.900Z,98363.85
2024-05-09T11:07:39.515Z,98360.85
2024-05-09T11:10:44.397Z,98371.77
2024-05-09T11:13:47.028Z,98371.27
2024-05-09T11:17:06.251Z,98372.70
2024-05-09T11:20:16.705Z,98364.60
2024-05-09T11:23:26.988Z,98359.49
2024-05-09T11:26:31.773Z,98353.16
2024-05-09T11:29:44.654Z,98353.35
2024-05-09T11:32:47.267Z,98346.23
2024-05-09T11:35:49.891Z,98348.13
2024-05-09T11:38:52.529Z,98348.91
2024-05-09T11:41:55.001Z,98341.52
2024-05-09T11:44:57.501Z,98339.09
2024-05-09T11:48:00.245Z,98340.00
2024-05-09T11:51:02.860Z,98341.02
2024-05-09T11:54:05.352Z,98340.09
2024-05-09T11:57:09.370Z,98332.98
2024-05-09T12:00:18.197Z,98332.30
2024-05-09T12:03:27.835Z,98334.91
2024-05-09T12:06:30.545Z,98328.64
2024-05-09T12:09:34.064Z,98325.58
2024-05-09T12:12:37.520Z,98320.80
2024-05-09T12:15:40.277Z,98325.59
2024-05-09T12:18:42.896Z,98320.54
2024-05-09T12:21:45.539Z,98311.93
2024-05-09T12:24:48.023Z,98312.10
2024-05-09T12:27:50.845Z,98312.27
2024-05-09T12:30:53.378Z,98311.40
2024-05-09T12:33:55.981Z,98304.55
2024-05-09T12:36:58.736Z,98302.84
2024-05-09T12:40:01.275Z,98301.00
2024-05-09T12:43:04.483Z,98299.32
2024-05-09T12:46:07.337Z,98293.94
2024-05-09T12:49:10.071Z,98285.02
2024-05-09T12:52:12.999Z,98285.33
2024-05-09T12:55:15.671Z,98285.40
2024-05-09T12:58:18.937Z,98287.98
2024-05-09T13:01:21.840Z,98280.34
2024-05-09T13:04:24.583Z,98280.58
2024-05-09T13:07:27.292Z,98273.95
2024-05-09T13:10:32.725Z,98268.02
2024-05-09T13:13:36.028Z,98268.63
2024-05-09T13:16:38.689Z,98267.85
2024-05-09T13:19:41.226Z,98262.75
2024-05-09T13:22:44.329Z,98261.20
2024-05-09T13:25:46.915Z,98256.79
2024-05-09T13:28:49.379Z,98253.20
2024-05-09T13:31:51.883Z,98251.90
2024-05-09T13:34:54.416Z,98245.76
2024-05-09T13:37:56.918Z,98245.30
2024-05-09T13:40:59.458Z,98243.38
2024-05-09T13:44:03.384Z,98242.59
2024-05-09T13:47:06.050Z,98239.20
2024-05-09T13:50:14.084Z,98233.64
2024-05-09T13:53:19.299Z,98231.95
2024-05-09T13:56:21.867Z,98233.33
2024-05-09T13:59:24.398Z,98232.00
2024-05-09T14:02:26.991Z,98231.48
2024-05-09T14:05:30.696Z,98228.30
2024-05-09T14:08:33.355Z,98223.17
2024-05-09T14:11:36.658Z,98219.77
2024-05-09T14:14:39.287Z,98217.80
2024-05-09T14:17:41.951Z,98218.22
2024-05-09T14:20:44.493Z,98211.42
2024-05-09T14:23:46.967Z,98215.44
2024-05-09T14:26:49.644Z,98207.60
2024-05-09T14:29:52.063Z,98208.01
2024-05-09T14:32:54.625Z,98207.23
2024-05-09T14:35:57.381Z,98207.77
2024-05-09T14:38:59.988Z,98201.17
2024-05-09T14:42:02.462Z,98200.77
2024-05-09T14:45:06.053Z,98200.96
2024-05-09T14:48:08.957Z,98192.63
2024-05-09T14:51:11.714Z,98194.10
2024-05-09T14:54:14.270Z,98192.16
2024-05-09T14:57:16.792Z,98189.44
2024-05-09T15:00:26.238Z,98184.27
2024-05-09T15:03:35.438Z,98186.94
2024-05-09T15:06:39.754Z,98185.39
2024-05-09T15:09:42.372Z,98184.14
2024-05-09T15:12:44.903Z,98184.84
2024-05-09T15:15:47.888Z,98177.93
2024-05-09T15:18:50.972Z,98175.86
2024-05-09T15:21:53.556Z,98173.27
2024-05-09T15:24:56.134Z,98174.41
2024-05-09T15:27:58.866Z,98175.91
2024-05-09T15:31:01.403Z,98174.25
2024-05-09T15:34:04.075Z,98173.42
2024-05-09T15:37:07.295Z,98166.92
2024-05-09T15:40:15.266Z,98175.44
2024-05-09T15:43:24.962Z,98169.80
2024-05-09T15:46:27.765Z,98169.17
2024-05-09T15:49:30.758Z,98165.77
2024-05-09T15:52:33.542Z,98163.55
2024-05-09T15:55:36.287Z,98164.20
2024-05-09T15:58:39.045Z,98165.11
2024-05-09T16:01:41.742Z,98167.06
2024-05-09T16:04:44.355Z,98170.38
2024-05-09T16:07:46.988Z,98166.86
2024-05-09T16:10:49.641Z,98158.55
2024-05-09T16:13:52.224Z,98162.48
2024-05-09T16:16:54.898Z,98161.98
2024-05-09T16:19:57.511Z,98161.89
2024-05-09T16:23:00.129Z,98160.35
2024-05-09T16:26:02.672Z,98158.80
2024-05-09T16:29:05.156Z,98158.81
2024-05-09T16:32:07.769Z,98153.96
2024-05-09T16:35:10.325Z,98156.87
2024-05-09T16:38:13.358Z,98157.81
2024-05-09T16:41:16.131Z,98160.83
2024-05-09T16:44:18.688Z,98156.96
2024-05-09T16:47:21.327Z,98159.39
2024-05-09T16:50:29.400Z,98159.83
2024-05-09T16:53:35.786Z,98160.82
2024-05-09T16:56:38.324Z,98158.92
2024-05-09T16:59:40.822Z,98157.98
2024-05-09T17:02:46.104Z,98155.98
2024-05-09T17:05:50.292Z,98161.55
2024-05-09T17:08:53.131Z,98157.05
2024-05-09T17:11:56.581Z,98156.48
2024-05-09T17:14:59.080Z,98155.63
2024-05-09T17:18:02.243Z,98155.09
2024-05-09T17:21:05.184Z,98154.96
2024-05-09T17:24:07.648Z,98158.03
2024-05-09T17:27:10.334Z,98159.76
2024-05-09T17:30:17.946Z,98162.41
2024-05-09T17:33:28.568Z,98164.45
2024-05-09T17:36:31.202Z,98167.86
2024-05-09T17:39:34.010Z,98165.95
2024-05-09T17:42:36.593Z,98169.61
2024-05-09T17:45:40.970Z,98167.70
2024-05-09T17:48:44.539Z,98164.27
2024-05-09T17:51:54.095Z,98162.71
2024-05-09T17:54:56.603Z,98167.50
2024-05-09T17:57:59.265Z,98167.71
2024-05-09T18:01:01.984Z,98172.91
2024-05-09T18:04:05.208Z,98169.77
2024-05-09T18:07:07.792Z,98172.39
2024-05-09T18:10:19.253Z,98169.64
2024-05-09T18:13:28.762Z,98168.59
2024-05-09T18:16:31.693Z,98170.86
2024-05-09T18:19:34.577Z,98172.52
2024-05-09T18:22:37.312Z,98173.80
2024-05-09T18:25:39.921Z,98177.33
2024-05-09T18:28:42.435Z,98184.18
2024-05-09T18:31:44.951Z,98178.93
2024-05-09T18:34:47.548Z,98187.03
2024-05-09T18:37:50.117Z,98191.88
2024-05-09T18:40:53.520Z,98200.92
2024-05-09T18:43:57.067Z,98204.61
2024-05-09T18:46:59.823Z,98206.15
2024-05-09T18:50:02.462Z,98209.42
2024-05-09T18:53:05.909Z,98212.55
2024-05-09T18:56:08.821Z,98216.66
2024-05-09T18:59:11.300Z,98222.45
2024-05-09T19:02:14.011Z,98226.63
2024-05-09T19:05:16.674Z,98232.33
2024-05-09T19:08:19.264Z,98234.79
2024-05-09T19:11:21.744Z,98240.85
2024-05-09T19:14:25.134Z,98243.29
2024-05-09T19:17:29.401Z,98243.16
2024-05-09T19:20:34.807Z,98243.20
2024-05-09T19:23:44.320Z,98244.94
2024-05-09T19:26:53.623Z,98252.81
2024-05-09T19:29:57.838Z,98254.20
2024-05-09T19:33:00.622Z,98254.39
2024-05-09T19:36:03.592Z,98254.09
2024-05-09T19:39:06.166Z,98259.95
2024-05-09T19:42:08.859Z,98266.84
2024-05-09T19:45:13.067Z,98263.98
2024-05-09T19:48:16.120Z,98263.17
2024-05-09T19:51:18.738Z,98262.92
2024-05-09T19:54:21.248Z,98266.52
2024-05-09T19:57:23.780Z,98262.52
2024-05-09T20:00:32.697Z,98262.05
2024-05-09T20:03:38.538Z,98261.80
2024-05-09T20:06:41.477Z,98263.98
2024-05-09T20:09:43.965Z,98264.80
2024-05-09T20:12:46.467Z,98266.62
2024-05-09T20:15:49.098Z,98269.11
2024-05-09T20:18:51.783Z,98267.66
2024-05-09T20:21:54.483Z,98264.98
2024-05-09T20:24:57.077Z,98266.84
2024-05-09T20:27:59.703Z,98267.63
2024-05-09T20:31:02.830Z,98268.20
2024-05-09T20:34:05.396Z,98267.56
2024-05-09T20:37:09.140Z,98271.15
2024-05-09T20:40:18.435Z,98271.35
2024-05-09T20:43:27.857Z,98270.33
2024-05-09T20:46:30.426Z,98272.05
2024-05-09T20:49:33.083Z,98270.10
2024-05-09T20:52:35.789Z,98268.43
2024-05-09T20:55:39.132Z,98266.36
2024-05-09T20:58:41.610Z,98272.27
2024-05-09T21:01:48.817Z,98277.77
2024-05-09T21:04:51.911Z,98277.31
2024-05-09T21:07:54.460Z,98275.52
2024-05-09T21:10:56.971Z,98276.49
2024-05-09T21:13:59.460Z,98281.51
2024-05-09T21:17:02.047Z,98282.84
2024-05-09T21:20:11.303Z,98287.55
2024-05-09T21:23:16.733Z,98286.85
2024-05-09T21:26:20.205Z,98285.39
2024-05-09T21:29:22.697Z,98281.43
2024-05-09T21:32:25.293Z,98280.95
2024-05-09T21:35:27.859Z,98282.45
2024-05-09T21:38:30.548Z,98282.49
2024-05-09T21:41:32.998Z,98282.70
2024-05-09T21:44:35.539Z,98282.51
2024-05-09T21:47:38.185Z,98284.13
2024-05-09T21:50:42.513Z,98281.29
2024-05-09T21:53:45.711Z,98281.83
2024-05-09T21:56:48.232Z,98278.04
2024-05-09T21:59:50.720Z,98281.57
2024-05-09T22:02:53.379Z,98283.20
2024-05-09T22:05:56.181Z,98284.83
2024-05-09T22:08:58.720Z,98280.47
2024-05-09T22:12:04.457Z,98279.23
2024-05-09T22:15:07.062Z,98279.38
2024-05-09T22:18:10.751Z,98273.71
2024-05-09T22:21:14.380Z,98278.60
2024-05-09T22:24:16.960Z,98277.63
2024-05-09T22:27:19.459Z,98280.73
2024-05-09T22:30:27.912Z,98279.94
2024-05-09T22:33:37.393Z,98278.86
2024-05-09T22:36:40.044Z,98280.21
2024-05-09T22:39:42.707Z,98280.71
2024-05-09T22:42:45.255Z,98280.90
2024-05-09T22:45:47.868Z,98278.73
2024-05-09T22:48:50.508Z,98275.60
2024-05-09T22:51:53.031Z,98272.40
2024-05-09T22:54:55.843Z,98272.98
2024-05-09T22:57:58.482Z,98272.45
2024-05-09T23:01:01.118Z,98268.55
2024-05-09T23:04:04.119Z,98269.21
2024-05-09T23:07:07.110Z,98265.88
2024-05-09T23:10:13.456Z,98264.74
2024-05-09T23:13:23.431Z,98262.49
2024-05-09T23:16:26.117Z,98262.81
2024-05-09T23:19:28.831Z,98259.54
2024-05-09T23:22:31.379Z,98258.95
2024-05-09T23:25:34.678Z,98260.69
2024-05-09T23:28:37.304Z,98256.91
2024-05-09T23:31:41.355Z,98255.03
2024-05-09T23:34:43.878Z,98251.04
2024-05-09T23:37:46.376Z,98255.52
2024-05-09T23:40:48.934Z,98254.75
2024-05-09T23:43:51.485Z,98253.69
2024-05-09T23:46:54.092Z,98246.98
2024-05-09T23:49:56.765Z,98244.11
2024-05-09T23:52:59.190Z,98246.60
2024-05-09T23:56:01.707Z,98244.65
2024-05-09T23:59:04.227Z,98241.27
